createdAt,value
2019-02-21T00:03:03.559Z,41.80
2019-02-21T00:08:06.706Z,47.63
2019-02-21T00:13:09.028Z,41.40
2019-02-21T00:18:11.250Z,40.40
2019-02-21T00:23:18.077Z,35.37
2019-02-21T00:28:20.061Z,40.57
2019-02-21T00:33:24.523Z,38.07
2019-02-21T00:38:26.698Z,39.07
2019-02-21T00:43:33.498Z,39.37
2019-02-21T00:48:35.618Z,42.07
2019-02-21T00:53:38.374Z,39.07
2019-02-21T00:58:40.765Z,37.23
2019-02-21T01:03:43.616Z,36.03
2019-02-21T01:08:47.602Z,40.30
2019-02-21T01:13:50.130Z,48.30
2019-02-21T01:18:52.675Z,38.67
2019-02-21T01:23:57.726Z,41.67
2019-02-21T01:28:59.829Z,40.77
2019-02-21T01:34:02.011Z,44.47
2019-02-21T01:39:07.016Z,44.70
2019-02-21T01:44:09.043Z,47.33
2019-02-21T01:49:13.957Z,52.20
2019-02-21T01:54:17.358Z,42.20
2019-02-21T01:59:19.446Z,44.23
2019-02-21T02:04:23.770Z,46.73
2019-02-21T02:09:25.818Z,48.37
2019-02-21T02:14:27.831Z,47.50
2019-02-21T02:19:31.176Z,46.40
2019-02-21T02:24:36.506Z,46.47
2019-02-21T02:29:38.786Z,49.50
2019-02-21T02:34:41.072Z,52.87
2019-02-21T02:39:44.665Z,45.20
2019-02-21T02:44:46.702Z,55.97
2019-02-21T02:49:49.834Z,57.13
2019-02-21T02:54:51.836Z,57.57
2019-02-21T03:00:01.344Z,57.93
2019-02-21T03:05:04.054Z,53.80
2019-02-21T03:10:09.152Z,54.83
2019-02-21T03:15:12.259Z,54.03
2019-02-21T03:20:14.417Z,62.03
2019-02-21T03:25:18.253Z,58.83
2019-02-21T03:30:22.049Z,56.27
2019-02-21T03:35:24.086Z,60.93
2019-02-21T03:40:26.425Z,54.17
2019-02-21T03:45:28.539Z,66.77
2019-02-21T03:50:32.222Z,65.37
2019-02-21T03:55:35.397Z,71.23
2019-02-21T04:00:38.347Z,62.47
2019-02-21T04:05:42.891Z,57.40
2019-02-21T04:10:44.957Z,53.57
2019-02-21T04:15:47.087Z,56.50
2019-02-21T04:20:49.120Z,57.37
2019-02-21T04:25:54.168Z,55.63
2019-02-21T04:30:56.476Z,61.30
2019-02-21T04:35:58.484Z,61.87
2019-02-21T04:41:00.770Z,58.63
2019-02-21T04:46:04.794Z,63.30
2019-02-21T04:51:06.967Z,64.80
2019-02-21T04:56:09.020Z,57.50
2019-02-21T05:01:11.340Z,63.50
2019-02-21T05:06:13.346Z,60.20
2019-02-21T05:11:15.375Z,62.80
2019-02-21T05:16:17.376Z,62.80
2019-02-21T05:21:23.699Z,60.87
2019-02-21T05:26:30.709Z,58.97
2019-02-21T05:31:51.089Z,64.00
2019-02-21T05:37:15.803Z,61.17
2019-02-21T05:42:30.238Z,60.37
2019-02-21T05:47:49.941Z,65.67
2019-02-21T05:53:02.165Z,63.50
2019-02-21T05:58:20.188Z,64.50
2019-02-21T06:03:38.624Z,76.93
2019-02-21T06:08:59.209Z,71.73
2019-02-21T06:14:19.550Z,70.20
2019-02-21T06:19:39.717Z,66.30
2019-02-21T06:24:55.770Z,68.67
2019-02-21T06:30:28.417Z,75.07
2019-02-21T06:35:30.477Z,68.53
2019-02-21T06:40:32.929Z,73.87
2019-02-21T06:45:34.926Z,73.30
2019-02-21T06:50:39.773Z,81.10
2019-02-21T06:55:41.856Z,73.90
2019-02-21T07:00:46.488Z,75.17
2019-02-21T07:05:50.347Z,70.67
2019-02-21T07:10:52.963Z,77.13
2019-02-21T07:15:54.999Z,82.17
2019-02-21T07:20:58.867Z,71.17
2019-02-21T07:26:05.791Z,70.63
2019-02-21T07:31:07.994Z,71.97
2019-02-21T07:36:11.078Z,68.70
2019-02-21T07:41:13.533Z,68.43
2019-02-21T07:46:17.803Z,87.20
2019-02-21T07:51:24.269Z,70.03
2019-02-21T07:56:41.156Z,69.53
2019-02-21T08:01:34.567Z,68.00
2019-02-21T08:06:39.124Z,67.27
2019-02-21T08:11:41.560Z,67.63
2019-02-21T08:16:43.629Z,64.23
2019-02-21T08:21:49.727Z,67.70
2019-02-21T08:26:55.408Z,66.53
2019-02-21T08:31:57.460Z,67.83
2019-02-21T08:36:59.573Z,63.73
2019-02-21T08:42:01.756Z,64.07
2019-02-21T08:47:05.930Z,58.97
2019-02-21T08:52:09.244Z,60.47
2019-02-21T08:57:13.227Z,63.33
2019-02-21T09:02:18.207Z,60.10
2019-02-21T09:07:23.504Z,59.83
2019-02-21T09:12:25.634Z,62.17
2019-02-21T09:17:27.694Z,59.33
2019-02-21T09:22:32.764Z,61.60
2019-02-21T09:27:36.991Z,65.23
2019-02-21T09:32:41.898Z,61.77
2019-02-21T09:37:44.674Z,66.23
2019-02-21T09:42:47.852Z,65.53
2019-02-21T09:47:49.855Z,66.23
2019-02-21T09:52:51.913Z,60.73
2019-02-21T09:57:54.325Z,77.57
2019-02-21T10:02:56.860Z,66.83
2019-02-21T10:07:59.464Z,67.27
2019-02-21T10:13:01.484Z,62.20
2019-02-21T10:18:03.979Z,65.20
2019-02-21T10:23:08.187Z,65.53
2019-02-21T10:28:10.216Z,68.43
2019-02-21T10:33:16.445Z,76.03
2019-02-21T10:38:28.170Z,83.90
2019-02-21T10:43:30.895Z,75.73
2019-02-21T10:48:33.157Z,84.93
2019-02-21T10:53:35.355Z,88.97
2019-02-21T10:58:37.410Z,94.10
2019-02-21T11:03:39.609Z,86.73
2019-02-21T11:08:41.693Z,76.57
2019-02-21T11:13:43.899Z,79.00
2019-02-21T11:18:45.916Z,84.20
2019-02-21T11:23:52.808Z,80.30
2019-02-21T11:28:54.821Z,73.77
2019-02-21T11:33:58.245Z,64.90
2019-02-21T11:39:03.706Z,62.23
2019-02-21T11:44:07.623Z,69.20
2019-02-21T11:49:14.968Z,68.53
2019-02-21T11:54:26.581Z,65.73
2019-02-21T11:59:25.252Z,62.97
2019-02-21T12:04:27.337Z,60.20
2019-02-21T12:09:37.299Z,55.07
2019-02-21T12:14:41.317Z,53.93
2019-02-21T12:19:43.650Z,48.60
2019-02-21T12:24:45.643Z,48.07
2019-02-21T12:29:48.002Z,45.37
2019-02-21T12:34:53.053Z,48.43
2019-02-21T12:39:55.396Z,49.63
2019-02-21T12:44:59.555Z,53.50
2019-02-21T12:50:02.472Z,50.23
2019-02-21T12:55:06.534Z,54.83
2019-02-21T13:00:15.833Z,48.53
2019-02-21T13:05:20.639Z,56.03
2019-02-21T13:10:23.109Z,51.40
2019-02-21T13:15:25.146Z,60.67
2019-02-21T13:20:27.663Z,57.33
2019-02-21T13:25:29.938Z,47.23
2019-02-21T13:30:32.299Z,42.47
2019-02-21T13:35:34.704Z,47.80
2019-02-21T13:40:36.917Z,44.13
2019-02-21T13:45:39.224Z,43.47
2019-02-21T13:50:43.550Z,45.77
2019-02-21T13:55:47.217Z,40.83
2019-02-21T14:00:49.468Z,41.60
2019-02-21T14:05:51.599Z,50.43
2019-02-21T14:10:53.732Z,43.70
2019-02-21T14:15:55.729Z,47.43
2019-02-21T14:21:01.215Z,44.40
2019-02-21T14:26:03.330Z,53.87
2019-02-21T14:31:07.389Z,49.20
2019-02-21T14:36:15.438Z,67.43
2019-02-21T14:41:16.806Z,64.07
2019-02-21T14:46:18.944Z,69.17
2019-02-21T14:51:23.875Z,66.20
2019-02-21T14:56:25.940Z,77.40
2019-02-21T15:01:28.073Z,71.10
2019-02-21T15:06:30.075Z,70.43
2019-02-21T15:11:32.240Z,67.60
2019-02-21T15:16:34.264Z,85.97
2019-02-21T15:21:45.265Z,87.00
2019-02-21T15:26:50.106Z,76.93
2019-02-21T15:31:53.893Z,85.20
2019-02-21T15:36:55.994Z,81.93
2019-02-21T15:41:58.261Z,74.03
2019-02-21T15:47:02.416Z,80.57
2019-02-21T15:52:05.590Z,72.30
2019-02-21T15:57:07.870Z,76.20
2019-02-21T16:02:09.896Z,89.07
2019-02-21T16:07:11.932Z,88.83
2019-02-21T16:12:14.432Z,81.33
2019-02-21T16:17:16.856Z,79.77
2019-02-21T16:22:19.084Z,76.13
2019-02-21T16:27:21.050Z,77.87
2019-02-21T16:32:23.264Z,78.53
2019-02-21T16:37:25.375Z,77.93
2019-02-21T16:42:27.394Z,91.83
2019-02-21T16:47:29.454Z,92.03
2019-02-21T16:52:31.494Z,92.10
2019-02-21T16:57:33.573Z,79.20
2019-02-21T17:02:39.731Z,77.73
2019-02-21T17:07:41.699Z,76.00
2019-02-21T17:12:44.060Z,81.87
2019-02-21T17:17:46.104Z,80.07
2019-02-21T17:22:50.112Z,100.33
2019-02-21T17:27:52.197Z,105.57
2019-02-21T17:32:54.439Z,92.23
2019-02-21T17:37:56.466Z,93.50
2019-02-21T17:42:58.891Z,76.87
2019-02-21T17:48:01.021Z,112.77
2019-02-21T17:53:03.487Z,127.82
2019-02-21T17:58:12.401Z,100.70
2019-02-21T18:03:16.256Z,90.23
2019-02-21T18:08:22.728Z,103.27
2019-02-21T18:13:29.577Z,122.80
2019-02-21T18:18:38.952Z,118.83
2019-02-21T18:23:43.754Z,122.13
2019-02-21T18:28:46.989Z,121.00
2019-02-21T18:33:49.267Z,129.47
2019-02-21T18:38:52.416Z,136.13
2019-02-21T18:43:59.467Z,150.33
2019-02-21T18:49:01.613Z,142.57
2019-02-21T18:54:10.918Z,133.13
2019-02-21T18:59:13.671Z,121.20
2019-02-21T19:04:19.366Z,122.53
2019-02-21T19:09:26.852Z,134.30
2019-02-21T19:14:29.312Z,128.67
2019-02-21T19:19:33.758Z,127.83
2019-02-21T19:24:37.188Z,110.50
2019-02-21T19:29:39.632Z,121.00
2019-02-21T19:34:41.630Z,121.27
2019-02-21T19:39:47.402Z,109.97
2019-02-21T19:44:50.043Z,108.03
2019-02-21T19:49:54.523Z,111.03
2019-02-21T19:54:59.015Z,117.97
2019-02-21T20:00:02.893Z,113.17
2019-02-21T20:05:08.876Z,106.77
2019-02-21T20:10:11.849Z,111.97
2019-02-21T20:15:14.680Z,110.50
2019-02-21T20:20:18.260Z,106.57
2019-02-21T20:25:22.563Z,113.67
2019-02-21T20:30:26.611Z,113.87
2019-02-21T20:35:31.289Z,113.37
2019-02-21T20:40:34.755Z,96.50
2019-02-21T20:45:36.708Z,105.13
2019-02-21T20:50:40.203Z,102.43
2019-02-21T20:55:44.008Z,115.97
2019-02-21T21:00:46.267Z,100.90
2019-02-21T21:05:48.789Z,100.90
2019-02-21T21:10:50.924Z,102.10
2019-02-21T21:15:55.819Z,107.80
2019-02-21T21:20:59.133Z,101.67
2019-02-21T21:26:03.332Z,96.27
2019-02-21T21:31:05.667Z,92.23
2019-02-21T21:36:08.445Z,94.60
2019-02-21T21:41:10.701Z,104.53
2019-02-21T21:46:13.497Z,95.87
2019-02-21T21:51:15.603Z,98.17
2019-02-21T21:56:17.613Z,90.97
2019-02-21T22:01:19.913Z,105.37
2019-02-21T22:06:22.141Z,92.07
2019-02-21T22:11:24.415Z,89.60
2019-02-21T22:16:26.429Z,100.30
2019-02-21T22:21:28.457Z,99.57
2019-02-21T22:26:30.467Z,97.13
2019-02-21T22:31:32.509Z,114.33
2019-02-21T22:36:34.510Z,87.83
2019-02-21T22:41:38.175Z,101.30
2019-02-21T22:46:40.197Z,84.93
2019-02-21T22:51:42.613Z,100.73
2019-02-21T22:56:44.621Z,99.33
2019-02-21T23:01:47.521Z,97.00
2019-02-21T23:07:26.480Z,99.33
2019-02-21T23:12:31.352Z,114.33
2019-02-21T23:17:33.344Z,102.40
2019-02-21T23:22:35.721Z,109.30
2019-02-21T23:27:39.528Z,105.90
2019-02-21T23:32:41.584Z,97.43
2019-02-21T23:37:43.703Z,87.70
2019-02-21T23:42:45.985Z,105.13
2019-02-21T23:47:49.928Z,107.53
2019-02-21T23:52:52.296Z,104.23
2019-02-21T23:57:54.464Z,102.83
